Time;durP1;ratioP1;P1;durP2;ratioP2;P2;SDS_P1;SDS_P2;PMS_P1;PMS_P2;Temp;Humidity;BMP_temperature;BMP_pressure;BME280_temperature;BME280_humidity;BME280_pressure;Samples;Min_cycle;Max_cycle;Signal;HPM_P1;HPM_P2
2022/04/06 00:01:58;;;;;;;;;;;8.80;99.90;;;;;;5035964;28;19971;-47
2022/04/06 00:04:24;;;;;;;;;;;8.80;99.90;;;;;;5035688;28;20307;-47
2022/04/06 00:06:52;;;;;;;;;;;8.80;99.90;;;;;;5036053;28;19964;-47
2022/04/06 00:09:19;;;;;;;;;;;8.80;99.90;;;;;;5035468;28;19932;-49
2022/04/06 00:11:44;;;;;;;;;;;8.80;99.90;;;;;;5035713;28;20011;-47
2022/04/06 00:14:09;;;;;;;;;;;8.80;99.90;;;;;;5035499;28;20008;-46
2022/04/06 00:16:35;;;;;;;;;;;8.80;99.90;;;;;;5035623;28;19925;-48
2022/04/06 00:19:00;;;;;;;;;;;8.70;99.90;;;;;;5035423;28;20442;-52
2022/04/06 00:21:27;;;;;;;;;;;8.70;99.90;;;;;;5035477;28;20426;-48
2022/04/06 00:23:53;;;;;;;;;;;8.70;99.90;;;;;;5035533;28;19929;-51
2022/04/06 00:26:18;;;;;;;;;;;8.70;99.90;;;;;;5035466;28;19932;-47
2022/04/06 00:28:44;;;;;;;;;;;8.70;99.90;;;;;;5035333;28;19929;-47
2022/04/06 00:31:10;;;;;;;;;;;8.70;99.90;;;;;;5035186;28;19925;-47
2022/04/06 00:33:35;;;;;;;;;;;8.70;99.90;;;;;;5035092;28;20284;-48
2022/04/06 00:36:01;;;;;;;;;;;8.70;99.90;;;;;;5035372;28;20261;-47
2022/04/06 00:38:26;;;;;;;;;;;8.70;99.90;;;;;;5035121;28;20016;-48
2022/04/06 00:40:52;;;;;;;;;;;8.70;99.90;;;;;;5034833;28;19925;-47
2022/04/06 00:43:17;;;;;;;;;;;8.70;99.90;;;;;;5035004;28;19971;-46
2022/04/06 00:45:43;;;;;;;;;;;8.70;99.90;;;;;;5034996;28;19929;-48
2022/04/06 00:48:09;;;;;;;;;;;8.70;99.90;;;;;;5017478;28;19933;-47
2022/04/06 00:50:35;;;;;;;;;;;8.80;99.90;;;;;;5034695;28;19987;-49
2022/04/06 00:53:01;;;;;;;;;;;8.70;99.90;;;;;;5034881;28;19936;-47
2022/04/06 00:55:30;;;;;;;;;;;8.70;99.90;;;;;;5017280;28;20264;-47
2022/04/06 00:57:56;;;;;;;;;;;8.70;99.90;;;;;;5016895;28;19932;-48
2022/04/06 01:00:22;;;;;;;;;;;8.70;99.90;;;;;;5034810;28;19970;-50
2022/04/06 01:02:47;;;;;;;;;;;8.70;99.90;;;;;;5034671;28;20016;-48
2022/04/06 01:05:13;;;;;;;;;;;8.70;99.90;;;;;;5034771;28;19932;-48
2022/04/06 01:07:38;;;;;;;;;;;8.70;99.90;;;;;;5034356;28;20342;-51
2022/04/06 01:10:04;;;;;;;;;;;8.70;99.90;;;;;;5034603;28;19926;-48
2022/04/06 01:12:32;;;;;;;;;;;8.80;99.90;;;;;;5034483;28;20015;-48
2022/04/06 01:14:57;;;;;;;;;;;8.80;99.90;;;;;;5034456;28;19925;-48
2022/04/06 01:17:22;;;;;;;;;;;8.80;99.90;;;;;;5034294;28;20345;-47
2022/04/06 01:19:50;;;;;;;;;;;8.70;99.90;;;;;;5034595;28;20287;-47
2022/04/06 01:22:17;;;;;;;;;;;8.80;99.90;;;;;;5016472;28;19971;-47
2022/04/06 01:24:43;;;;;;;;;;;8.70;99.90;;;;;;5034425;28;20395;-46
2022/04/06 01:27:09;;;;;;;;;;;8.70;99.90;;;;;;5034196;28;19951;-47
2022/04/06 01:29:34;;;;;;;;;;;8.70;99.90;;;;;;5034163;28;20368;-47
2022/04/06 01:32:07;;;;;;;;;;;8.70;99.90;;;;;;5034010;28;20314;-46
2022/04/06 01:34:33;;;;;;;;;;;8.70;99.90;;;;;;5034270;28;19925;-47
2022/04/06 01:36:58;;;;;;;;;;;8.70;99.90;;;;;;5034117;28;19932;-48
2022/04/06 01:39:23;;;;;;;;;;;8.70;99.90;;;;;;5034190;28;19925;-47
2022/04/06 01:41:49;;;;;;;;;;;8.70;99.90;;;;;;5034002;28;20287;-50
2022/04/06 01:44:14;;;;;;;;;;;8.70;99.90;;;;;;5033989;28;19978;-48
2022/04/06 01:46:40;;;;;;;;;;;8.70;99.90;;;;;;5033774;28;19932;-48
2022/04/06 01:54:33;;;;;;;;;;;8.70;99.90;;;;;;5033749;28;19978;-47
2022/04/06 01:56:59;;;;;;;;;;;8.70;99.90;;;;;;5033652;28;20020;-47
2022/04/06 01:59:25;;;;;;;;;;;8.70;99.90;;;;;;5033503;28;20383;-47
2022/04/06 02:01:53;;;;;;;;;;;8.70;99.90;;;;;;5032861;28;22347;-48
2022/04/06 02:04:19;;;;;;;;;;;8.70;99.90;;;;;;5033638;28;19971;-48
2022/04/06 02:06:44;;;;;;;;;;;8.70;99.90;;;;;;5033650;28;19976;-47
2022/04/06 02:09:11;;;;;;;;;;;8.70;99.90;;;;;;5033671;28;20283;-47
2022/04/06 02:11:36;;;;;;;;;;;8.70;99.90;;;;;;5033357;28;20359;-47
2022/04/06 02:14:03;;;;;;;;;;;8.70;99.90;;;;;;5015580;28;20088;-47
2022/04/06 02:16:29;;;;;;;;;;;8.70;99.90;;;;;;5033361;28;20383;-46
2022/04/06 02:18:54;;;;;;;;;;;8.70;99.90;;;;;;5033271;28;19983;-47
2022/04/06 02:21:20;;;;;;;;;;;8.70;99.90;;;;;;5033728;28;19925;-47
2022/04/06 02:23:45;;;;;;;;;;;8.70;99.90;;;;;;5033295;28;20597;-47
2022/04/06 02:26:11;;;;;;;;;;;8.70;99.90;;;;;;5033172;28;19932;-47
2022/04/06 02:28:37;;;;;;;;;;;8.70;99.90;;;;;;5033604;28;19925;-47
2022/04/06 02:31:02;;;;;;;;;;;8.70;99.90;;;;;;5033341;28;19967;-47
2022/04/06 02:33:27;;;;;;;;;;;8.70;99.90;;;;;;5033183;28;19957;-46
2022/04/06 02:35:53;;;;;;;;;;;8.70;99.90;;;;;;5015496;28;19925;-47
2022/04/06 02:38:18;;;;;;;;;;;8.70;99.90;;;;;;5033286;28;19925;-47
2022/04/06 02:40:45;;;;;;;;;;;8.70;99.90;;;;;;5015406;28;19933;-48
2022/04/06 02:43:11;;;;;;;;;;;8.70;99.90;;;;;;5033009;28;20291;-47
2022/04/06 02:45:36;;;;;;;;;;;8.70;99.90;;;;;;5033165;28;19925;-47
2022/04/06 02:48:02;;;;;;;;;;;8.70;99.90;;;;;;5033089;28;19979;-47
2022/04/06 02:50:27;;;;;;;;;;;8.80;99.90;;;;;;5032979;28;19932;-47
2022/04/06 02:52:52;;;;;;;;;;;8.80;99.90;;;;;;5032976;28;19932;-47
2022/04/06 02:55:18;;;;;;;;;;;8.80;99.90;;;;;;5032943;28;19932;-46
2022/04/06 02:57:43;;;;;;;;;;;8.80;99.90;;;;;;5033095;28;20395;-47
2022/04/06 03:00:09;;;;;;;;;;;8.80;99.90;;;;;;5033069;28;20131;-47
2022/04/06 03:02:35;;;;;;;;;;;8.80;99.90;;;;;;5034281;28;19925;-49
2022/04/06 03:05:00;;;;;;;;;;;8.80;99.90;;;;;;5036917;28;20027;-46
2022/04/06 03:07:26;;;;;;;;;;;8.90;99.90;;;;;;5037092;28;20031;-48
2022/04/06 03:09:51;;;;;;;;;;;8.80;99.90;;;;;;5036530;28;20007;-48
2022/04/06 03:12:17;;;;;;;;;;;8.80;99.90;;;;;;5036854;28;19925;-47
2022/04/06 03:14:42;;;;;;;;;;;8.90;99.90;;;;;;5036802;28;20371;-47
2022/04/06 03:17:08;;;;;;;;;;;8.90;99.90;;;;;;5036745;28;19925;-49
2022/04/06 03:19:33;;;;;;;;;;;8.90;99.90;;;;;;5036619;28;19932;-51
2022/04/06 03:21:59;;;;;;;;;;;8.90;99.90;;;;;;5036525;28;20406;-47
2022/04/06 03:24:24;;;;;;;;;;;8.90;99.90;;;;;;5036425;28;19925;-48
2022/04/06 03:26:50;;;;;;;;;;;8.90;99.90;;;;;;5036300;28;19940;-49
2022/04/06 03:29:15;;;;;;;;;;;8.90;99.90;;;;;;5036683;28;20369;-46
2022/04/06 03:31:41;;;;;;;;;;;8.90;99.90;;;;;;5036311;28;19972;-49
2022/04/06 03:34:06;;;;;;;;;;;8.90;99.90;;;;;;5036336;28;19925;-47
2022/04/06 03:36:32;;;;;;;;;;;8.90;99.90;;;;;;5036386;28;19932;-48
2022/04/06 03:38:57;;;;;;;;;;;8.90;99.90;;;;;;5036169;28;19925;-46
2022/04/06 03:41:23;;;;;;;;;;;8.90;99.90;;;;;;5036046;28;20127;-46
2022/04/06 03:43:48;;;;;;;;;;;8.90;99.90;;;;;;5036330;28;19979;-47
2022/04/06 03:46:14;;;;;;;;;;;8.90;99.90;;;;;;5036186;28;20399;-48
2022/04/06 03:48:40;;;;;;;;;;;8.90;99.90;;;;;;5036012;28;19925;-47
2022/04/06 03:51:05;;;;;;;;;;;8.90;99.90;;;;;;5035867;28;20017;-47
2022/04/06 03:53:31;;;;;;;;;;;8.90;99.90;;;;;;5035929;28;19925;-48
2022/04/06 03:55:56;;;;;;;;;;;8.90;99.90;;;;;;5035982;28;19932;-48
2022/04/06 03:58:22;;;;;;;;;;;8.90;99.90;;;;;;5035837;28;19925;-49
2022/04/06 04:00:47;;;;;;;;;;;8.90;99.90;;;;;;5035897;28;19931;-50
2022/04/06 04:03:13;;;;;;;;;;;8.90;99.90;;;;;;5036076;28;20311;-49
2022/04/06 04:05:38;;;;;;;;;;;8.90;99.90;;;;;;5036225;28;19948;-48
2022/04/06 04:08:04;;;;;;;;;;;8.90;99.90;;;;;;5035537;28;19932;-49
2022/04/06 04:10:30;;;;;;;;;;;8.90;99.90;;;;;;5035546;28;19921;-49
2022/04/06 04:12:55;;;;;;;;;;;8.90;99.90;;;;;;5035875;28;20370;-50
2022/04/06 04:15:21;;;;;;;;;;;8.90;99.90;;;;;;5034838;28;19925;-52
2022/04/06 04:17:46;;;;;;;;;;;8.80;99.90;;;;;;5035655;28;20376;-47
2022/04/06 04:20:12;;;;;;;;;;;8.90;99.90;;;;;;5035574;28;20006;-51
2022/04/06 04:22:37;;;;;;;;;;;8.90;99.90;;;;;;5035366;28;19965;-48
2022/04/06 04:25:03;;;;;;;;;;;8.80;99.90;;;;;;5035432;28;19925;-49
2022/04/06 04:27:29;;;;;;;;;;;8.80;99.90;;;;;;5035295;28;19995;-46
2022/04/06 04:29:55;;;;;;;;;;;8.80;99.90;;;;;;5035161;28;19925;-49
2022/04/06 04:32:22;;;;;;;;;;;8.80;99.90;;;;;;5035268;28;19925;-47
2022/04/06 04:34:48;;;;;;;;;;;8.80;99.90;;;;;;5035220;28;20382;-47
2022/04/06 04:37:13;;;;;;;;;;;8.80;99.90;;;;;;5035108;28;19972;-48
2022/04/06 04:39:39;;;;;;;;;;;8.80;99.90;;;;;;5034977;28;19925;-47
2022/04/06 04:42:04;;;;;;;;;;;8.80;99.90;;;;;;5035103;28;19932;-49
2022/04/06 04:44:30;;;;;;;;;;;8.80;99.90;;;;;;5035148;28;20007;-46
2022/04/06 04:46:55;;;;;;;;;;;8.80;99.90;;;;;;5017308;28;19932;-48
2022/04/06 04:49:21;;;;;;;;;;;8.80;99.90;;;;;;5034950;28;19925;-48
2022/04/06 04:51:46;;;;;;;;;;;8.80;99.90;;;;;;5017010;28;19948;-48
2022/04/06 04:54:12;;;;;;;;;;;8.70;99.90;;;;;;5016948;28;19941;-49
2022/04/06 04:56:40;;;;;;;;;;;8.80;99.90;;;;;;5034924;28;20291;-47
2022/04/06 04:59:06;;;;;;;;;;;8.70;99.90;;;;;;5017275;28;19925;-48
2022/04/06 05:01:31;;;;;;;;;;;8.70;99.90;;;;;;5034833;28;19971;-51
2022/04/06 05:03:57;;;;;;;;;;;8.70;99.90;;;;;;5034799;28;19926;-47
2022/04/06 05:06:22;;;;;;;;;;;8.80;99.90;;;;;;5034665;28;20375;-48
2022/04/06 05:08:48;;;;;;;;;;;8.80;99.90;;;;;;5034200;28;19929;-46
2022/04/06 05:11:15;;;;;;;;;;;8.70;99.90;;;;;;5016704;28;19932;-49
2022/04/06 05:13:41;;;;;;;;;;;8.70;99.90;;;;;;5034478;28;19925;-48
2022/04/06 05:16:06;;;;;;;;;;;8.70;99.90;;;;;;5034544;28;19932;-47
2022/04/06 05:18:32;;;;;;;;;;;8.80;99.90;;;;;;5034549;28;19932;-48
2022/04/06 05:20:58;;;;;;;;;;;8.70;99.90;;;;;;5034410;28;20045;-47
2022/04/06 05:23:23;;;;;;;;;;;8.70;99.90;;;;;;5034172;28;19925;-48
2022/04/06 05:25:48;;;;;;;;;;;8.70;99.90;;;;;;5034486;28;20236;-48
2022/04/06 05:28:18;;;;;;;;;;;8.70;99.90;;;;;;5034573;28;19975;-51
2022/04/06 05:30:44;;;;;;;;;;;8.70;99.90;;;;;;5034360;28;19975;-49
2022/04/06 05:33:09;;;;;;;;;;;8.70;99.90;;;;;;5034205;28;20388;-50
2022/04/06 05:35:35;;;;;;;;;;;8.70;99.90;;;;;;5034035;28;19925;-51
2022/04/06 05:38:00;;;;;;;;;;;8.70;99.90;;;;;;5034002;28;19984;-47
2022/04/06 05:40:26;;;;;;;;;;;8.70;99.90;;;;;;5034177;28;19972;-47
2022/04/06 05:42:51;;;;;;;;;;;8.70;99.90;;;;;;5034034;28;19978;-49
2022/04/06 05:45:17;;;;;;;;;;;8.70;99.90;;;;;;5016531;28;19925;-48
2022/04/06 05:47:42;;;;;;;;;;;8.70;99.90;;;;;;5016259;28;19925;-47
2022/04/06 05:50:08;;;;;;;;;;;8.70;99.90;;;;;;5033797;28;19995;-48
2022/04/06 05:52:34;;;;;;;;;;;8.70;99.90;;;;;;5015777;28;20406;-50
2022/04/06 05:55:00;;;;;;;;;;;8.80;99.90;;;;;;5033887;28;19925;-47
2022/04/06 05:57:25;;;;;;;;;;;8.70;99.90;;;;;;5016266;28;20432;-50
2022/04/06 05:59:51;;;;;;;;;;;8.80;99.90;;;;;;5033745;28;19925;-46
2022/04/06 06:02:16;;;;;;;;;;;8.80;99.90;;;;;;5033693;28;19928;-50
2022/04/06 06:04:42;;;;;;;;;;;8.80;99.90;;;;;;5034060;28;19925;-51
2022/04/06 06:07:07;;;;;;;;;;;8.80;99.90;;;;;;5033463;28;19932;-51
2022/04/06 06:09:34;;;;;;;;;;;8.90;99.90;;;;;;5033311;28;20030;-46
2022/04/06 06:11:59;;;;;;;;;;;8.90;99.90;;;;;;5033624;28;19931;-49
2022/04/06 06:14:28;;;;;;;;;;;8.90;99.90;;;;;;5033260;28;19925;-48
2022/04/06 06:16:54;;;;;;;;;;;9.00;99.90;;;;;;5033469;28;20182;-47
2022/04/06 06:19:19;;;;;;;;;;;9.00;99.90;;;;;;5033378;28;20019;-49
2022/04/06 06:21:45;;;;;;;;;;;9.00;99.90;;;;;;5033349;28;20025;-47
2022/04/06 06:24:10;;;;;;;;;;;9.10;99.90;;;;;;5033464;28;20394;-48
2022/04/06 06:26:36;;;;;;;;;;;9.00;99.90;;;;;;5033380;28;19932;-49
2022/04/06 06:29:02;;;;;;;;;;;9.10;99.90;;;;;;5033229;28;19932;-48
2022/04/06 06:31:28;;;;;;;;;;;9.10;99.90;;;;;;5033423;28;19925;-48
2022/04/06 06:33:54;;;;;;;;;;;9.10;99.90;;;;;;5033193;28;19925;-47
2022/04/06 06:36:19;;;;;;;;;;;9.10;99.90;;;;;;5033210;28;19925;-48
2022/04/06 06:38:45;;;;;;;;;;;9.10;99.90;;;;;;5039548;28;19925;-47
2022/04/06 06:41:10;;;;;;;;;;;9.10;99.90;;;;;;5039884;28;20470;-47
2022/04/06 06:43:36;;;;;;;;;;;9.10;99.90;;;;;;5022265;28;19925;-47
2022/04/06 06:46:01;;;;;;;;;;;9.10;99.90;;;;;;5021901;28;19964;-47
2022/04/06 06:48:27;;;;;;;;;;;9.10;99.90;;;;;;5039691;28;19925;-47
2022/04/06 06:50:52;;;;;;;;;;;9.10;99.90;;;;;;5039441;28;19932;-49
2022/04/06 06:53:18;;;;;;;;;;;9.10;99.90;;;;;;5021881;28;20340;-48
2022/04/06 06:55:43;;;;;;;;;;;9.10;99.90;;;;;;5039755;28;20394;-46
2022/04/06 06:58:09;;;;;;;;;;;9.10;99.90;;;;;;5039707;28;19925;-47
2022/04/06 07:00:34;;;;;;;;;;;9.10;99.90;;;;;;5039800;28;19964;-47
2022/04/06 07:02:59;;;;;;;;;;;9.10;99.90;;;;;;5039663;28;19925;-48
2022/04/06 07:05:25;;;;;;;;;;;9.10;99.90;;;;;;5039491;28;20324;-49
2022/04/06 07:07:55;;;;;;;;;;;9.10;99.90;;;;;;5005194;28;19960;-46
2022/04/06 07:10:21;;;;;;;;;;;9.10;99.90;;;;;;5039726;28;20018;-48
2022/04/06 07:12:46;;;;;;;;;;;9.10;99.90;;;;;;5039570;28;19979;-49
2022/04/06 07:15:12;;;;;;;;;;;9.10;99.90;;;;;;5039524;28;19987;-50
2022/04/06 07:17:37;;;;;;;;;;;9.10;99.90;;;;;;5039459;28;19925;-50
2022/04/06 07:20:03;;;;;;;;;;;9.10;99.90;;;;;;5039288;28;19925;-48
2022/04/06 07:22:29;;;;;;;;;;;9.10;99.90;;;;;;5039489;28;19929;-48
2022/04/06 07:24:54;;;;;;;;;;;9.10;99.90;;;;;;5039676;28;19972;-46
2022/04/06 07:27:21;;;;;;;;;;;9.10;99.90;;;;;;5040133;28;19925;-47
2022/04/06 07:29:46;;;;;;;;;;;9.20;99.90;;;;;;5039301;28;20442;-50
2022/04/06 07:32:12;;;;;;;;;;;9.20;99.90;;;;;;5039298;28;19979;-47
2022/04/06 07:34:38;;;;;;;;;;;9.20;99.90;;;;;;5039077;28;19968;-50
2022/04/06 07:37:03;;;;;;;;;;;9.20;99.90;;;;;;5039369;28;19925;-47
2022/04/06 07:39:29;;;;;;;;;;;9.30;99.90;;;;;;5021406;28;19925;-48
2022/04/06 07:41:57;;;;;;;;;;;9.30;99.90;;;;;;5039328;28;20402;-50
2022/04/06 07:44:23;;;;;;;;;;;9.30;99.90;;;;;;5039229;28;20328;-48
2022/04/06 07:46:48;;;;;;;;;;;9.30;99.90;;;;;;5039233;28;19978;-52
2022/04/06 07:49:14;;;;;;;;;;;9.30;99.90;;;;;;5018592;28;19925;-48
2022/04/06 07:51:39;;;;;;;;;;;9.30;99.90;;;;;;5036109;28;19925;-48
2022/04/06 07:54:05;;;;;;;;;;;9.30;99.90;;;;;;5018172;28;19929;-47
2022/04/06 07:56:30;;;;;;;;;;;9.40;99.90;;;;;;5036362;28;20000;-47
2022/04/06 07:58:56;;;;;;;;;;;9.40;99.90;;;;;;5036031;28;19925;-48
2022/04/06 08:01:21;;;;;;;;;;;9.40;99.90;;;;;;5001756;28;20446;-48
2022/04/06 08:03:47;;;;;;;;;;;9.40;99.90;;;;;;5035674;28;19933;-48
2022/04/06 08:06:12;;;;;;;;;;;9.40;99.90;;;;;;5035956;28;20387;-49
2022/04/06 08:08:38;;;;;;;;;;;9.40;99.90;;;;;;5035730;28;20295;-47
2022/04/06 08:11:05;;;;;;;;;;;9.50;99.90;;;;;;5035817;28;20004;-48
2022/04/06 08:13:34;;;;;;;;;;;9.50;99.90;;;;;;5035564;28;19925;-48
2022/04/06 08:15:59;;;;;;;;;;;9.50;99.90;;;;;;5018259;28;19964;-47
2022/04/06 08:18:25;;;;;;;;;;;9.50;99.90;;;;;;5035551;28;20468;-48
2022/04/06 08:20:50;;;;;;;;;;;9.60;99.90;;;;;;5017720;28;20276;-47
2022/04/06 08:23:20;;;;;;;;;;;9.70;99.90;;;;;;5035581;28;19926;-48
2022/04/06 08:25:46;;;;;;;;;;;9.70;99.90;;;;;;5017729;28;19925;-46
2022/04/06 08:28:12;;;;;;;;;;;9.70;99.90;;;;;;5035430;28;20008;-51
2022/04/06 08:30:42;;;;;;;;;;;9.70;99.90;;;;;;5035311;28;19925;-52
2022/04/06 08:33:07;;;;;;;;;;;9.70;99.90;;;;;;5035346;28;19933;-47
2022/04/06 08:35:33;;;;;;;;;;;9.70;99.90;;;;;;5035352;28;19925;-49
2022/04/06 08:37:58;;;;;;;;;;;9.70;99.90;;;;;;5035223;28;20314;-48
2022/04/06 08:40:25;;;;;;;;;;;9.70;99.90;;;;;;5035468;28;19936;-48
2022/04/06 08:42:51;;;;;;;;;;;9.80;99.90;;;;;;5035133;28;19925;-48
2022/04/06 08:45:16;;;;;;;;;;;9.90;99.90;;;;;;5034927;28;19925;-49
2022/04/06 08:47:45;;;;;;;;;;;9.90;99.90;;;;;;5035237;28;19925;-48
2022/04/06 08:50:11;;;;;;;;;;;10.00;99.90;;;;;;5035180;28;19941;-49
2022/04/06 08:52:38;;;;;;;;;;;10.10;99.90;;;;;;5035138;28;19932;-48
2022/04/06 08:55:04;;;;;;;;;;;10.30;99.90;;;;;;5034998;28;19925;-48
2022/04/06 08:57:32;;;;;;;;;;;10.40;99.90;;;;;;5035191;28;20286;-47
2022/04/06 08:59:57;;;;;;;;;;;10.50;99.90;;;;;;5034235;28;20350;-47
2022/04/06 09:02:23;;;;;;;;;;;10.60;99.90;;;;;;5034855;28;19925;-49
2022/04/06 09:04:50;;;;;;;;;;;10.60;99.90;;;;;;5034638;28;20327;-49
2022/04/06 09:07:15;;;;;;;;;;;10.60;99.90;;;;;;5034507;28;20442;-49
2022/04/06 09:09:41;;;;;;;;;;;10.60;99.90;;;;;;5030498;28;19976;-47
2022/04/06 09:12:08;;;;;;;;;;;10.50;99.90;;;;;;5034590;28;20047;-47
2022/04/06 09:14:34;;;;;;;;;;;10.60;99.90;;;;;;5034433;28;19925;-48
2022/04/06 09:17:06;;;;;;;;;;;10.60;99.90;;;;;;5034620;28;19948;-52
2022/04/06 09:19:35;;;;;;;;;;;10.60;99.90;;;;;;5016689;28;19979;-48
2022/04/06 09:22:04;;;;;;;;;;;10.50;99.90;;;;;;5034271;28;19929;-50
2022/04/06 09:24:30;;;;;;;;;;;10.60;99.90;;;;;;5033103;28;19932;-47
2022/04/06 09:26:59;;;;;;;;;;;10.60;99.90;;;;;;5034194;28;19925;-48
2022/04/06 09:29:25;;;;;;;;;;;10.70;99.90;;;;;;5034362;28;19932;-48
2022/04/06 09:31:51;;;;;;;;;;;10.60;99.90;;;;;;5034294;28;19925;-49
2022/04/06 09:34:19;;;;;;;;;;;10.60;99.90;;;;;;5034152;28;19925;-47
2022/04/06 09:36:45;;;;;;;;;;;10.50;99.90;;;;;;5034142;28;19932;-48
2022/04/06 09:39:10;;;;;;;;;;;10.40;99.90;;;;;;5033990;28;19925;-48
2022/04/06 09:41:55;;;;;;;;;;;10.30;99.90;;;;;;5033972;28;19980;-50
2022/04/06 09:50:10;;;;;;;;;;;10.40;99.90;;;;;;5033682;28;20028;-48
2022/04/06 09:52:36;;;;;;;;;;;10.50;99.90;;;;;;5033724;28;19978;-51
2022/04/06 09:55:05;;;;;;;;;;;10.60;99.90;;;;;;5033908;28;19948;-50
2022/04/06 09:57:31;;;;;;;;;;;10.60;99.90;;;;;;5032467;28;19925;-48
2022/04/06 09:59:57;;;;;;;;;;;10.60;99.90;;;;;;5033828;28;19925;-47
2022/04/06 10:02:23;;;;;;;;;;;10.60;99.90;;;;;;5032297;28;20333;-47
2022/04/06 10:04:49;;;;;;;;;;;10.60;99.90;;;;;;5033816;28;19925;-49
2022/04/06 10:07:15;;;;;;;;;;;10.50;99.90;;;;;;5033512;28;20398;-48
2022/04/06 10:09:41;;;;;;;;;;;10.50;99.90;;;;;;5033640;28;19925;-48
2022/04/06 10:12:09;;;;;;;;;;;10.40;99.90;;;;;;5032861;28;19929;-47
2022/04/06 10:14:35;;;;;;;;;;;10.50;99.90;;;;;;5033440;28;19976;-47
2022/04/06 10:17:02;;;;;;;;;;;10.50;99.90;;;;;;5033311;28;19936;-48
2022/04/06 10:19:31;;;;;;;;;;;10.50;99.90;;;;;;5033507;28;20019;-47
2022/04/06 10:22:00;;;;;;;;;;;10.60;99.90;;;;;;5033205;28;20294;-49
2022/04/06 10:24:36;;;;;;;;;;;10.60;99.90;;;;;;5015643;28;20307;-48
2022/04/06 10:27:02;;;;;;;;;;;10.60;99.90;;;;;;5033399;28;19925;-48
2022/04/06 10:29:27;;;;;;;;;;;10.60;99.90;;;;;;5015529;28;19925;-47
2022/04/06 10:31:53;;;;;;;;;;;10.50;99.90;;;;;;5033446;28;19994;-47
2022/04/06 10:34:19;;;;;;;;;;;10.60;99.90;;;;;;5033234;28;20020;-49
2022/04/06 10:37:02;;;;;;;;;;;10.60;99.90;;;;;;5033423;28;19925;-47
2022/04/06 10:39:27;;;;;;;;;;;10.60;99.90;;;;;;5015567;28;19925;-47
2022/04/06 10:42:11;;;;;;;;;;;10.70;99.90;;;;;;5033349;28;19932;-47
2022/04/06 10:44:37;;;;;;;;;;;10.70;99.90;;;;;;5033358;28;19929;-47
2022/04/06 10:47:10;;;;;;;;;;;10.70;99.90;;;;;;5033280;28;19961;-47
2022/04/06 10:49:36;;;;;;;;;;;10.70;99.90;;;;;;5033245;28;19926;-49
2022/04/06 10:52:24;;;;;;;;;;;10.70;99.90;;;;;;5033046;28;19932;-49
2022/04/06 10:54:51;;;;;;;;;;;10.70;99.90;;;;;;5033122;28;19971;-47
2022/04/06 10:57:17;;;;;;;;;;;10.60;99.90;;;;;;5033299;28;19964;-47
2022/04/06 10:59:42;;;;;;;;;;;10.60;99.90;;;;;;5033073;28;19965;-46
2022/04/06 11:02:21;;;;;;;;;;;10.50;99.90;;;;;;5033195;28;19925;-49
2022/04/06 11:04:47;;;;;;;;;;;10.50;99.90;;;;;;5015503;28;19926;-47
2022/04/06 11:07:16;;;;;;;;;;;10.40;99.90;;;;;;5032874;28;19929;-47
2022/04/06 11:12:31;;;;;;;;;;;10.40;99.90;;;;;;5033013;28;19921;-50
2022/04/06 11:14:59;;;;;;;;;;;10.30;99.90;;;;;;5033160;28;19925;-47
2022/04/06 11:17:44;;;;;;;;;;;10.30;99.90;;;;;;5032780;28;20021;-47
2022/04/06 11:20:19;;;;;;;;;;;10.20;99.90;;;;;;5033068;28;19931;-47
2022/04/06 11:22:55;;;;;;;;;;;10.20;99.90;;;;;;5033000;28;19926;-47
2022/04/06 11:25:22;;;;;;;;;;;10.20;99.90;;;;;;5036588;28;19971;-48
2022/04/06 11:27:48;;;;;;;;;;;10.10;99.90;;;;;;5036462;28;19929;-47
2022/04/06 11:30:14;;;;;;;;;;;10.10;99.90;;;;;;5018731;28;19939;-47
2022/04/06 11:32:41;;;;;;;;;;;10.10;99.90;;;;;;5036496;28;19971;-49
2022/04/06 11:35:07;;;;;;;;;;;10.10;99.90;;;;;;5036405;28;19929;-48
2022/04/06 11:37:48;;;;;;;;;;;10.10;99.90;;;;;;5036607;28;19932;-48
2022/04/06 11:40:37;;;;;;;;;;;10.10;99.90;;;;;;5036331;28;19925;-51
2022/04/06 11:43:05;;;;;;;;;;;10.10;99.90;;;;;;5036190;28;20446;-47
2022/04/06 11:45:32;;;;;;;;;;;10.20;99.90;;;;;;5036291;28;20011;-48
2022/04/06 11:48:01;;;;;;;;;;;10.20;99.90;;;;;;5036227;28;19925;-47
2022/04/06 11:50:28;;;;;;;;;;;10.20;99.90;;;;;;5036185;28;19925;-48
2022/04/06 11:52:53;;;;;;;;;;;10.20;99.90;;;;;;5035841;28;19965;-48
2022/04/06 11:55:19;;;;;;;;;;;10.20;99.90;;;;;;5036161;28;19925;-48
2022/04/06 11:57:48;;;;;;;;;;;10.20;99.90;;;;;;5035998;28;19925;-48
2022/04/06 12:00:15;;;;;;;;;;;10.20;99.90;;;;;;5035976;28;19925;-47
2022/04/06 12:02:50;;;;;;;;;;;10.20;99.90;;;;;;5035916;28;19966;-47
2022/04/06 12:05:16;;;;;;;;;;;10.20;99.90;;;;;;5035822;28;20388;-47
2022/04/06 12:07:41;;;;;;;;;;;10.30;99.90;;;;;;5035645;28;19959;-48
2022/04/06 12:10:07;;;;;;;;;;;10.30;99.90;;;;;;5035822;28;19927;-49
2022/04/06 12:12:35;;;;;;;;;;;10.50;99.90;;;;;;5017919;28;19931;-47
2022/04/06 12:15:02;;;;;;;;;;;10.60;99.90;;;;;;5001848;28;19933;-47
2022/04/06 12:17:27;;;;;;;;;;;10.80;99.90;;;;;;5035622;28;20012;-47
2022/04/06 12:19:53;;;;;;;;;;;11.00;99.90;;;;;;5035510;28;20363;-46
2022/04/06 12:22:24;;;;;;;;;;;11.10;99.90;;;;;;5035630;28;20299;-49
2022/04/06 12:24:49;;;;;;;;;;;11.30;99.90;;;;;;5035638;28;19968;-49
2022/04/06 12:27:28;;;;;;;;;;;11.40;99.90;;;;;;5035504;28;19957;-49
2022/04/06 12:30:04;;;;;;;;;;;11.50;99.90;;;;;;5035327;28;20290;-48
2022/04/06 12:32:40;;;;;;;;;;;11.60;99.90;;;;;;5034176;28;19996;-48
2022/04/06 12:35:16;;;;;;;;;;;11.60;99.90;;;;;;5034801;28;19925;-47
2022/04/06 12:37:41;;;;;;;;;;;11.50;99.90;;;;;;5035358;28;19925;-48
2022/04/06 12:40:08;;;;;;;;;;;11.50;99.90;;;;;;5035305;28;19939;-51
2022/04/06 12:42:37;;;;;;;;;;;11.40;99.90;;;;;;5017658;28;20023;-48
2022/04/06 12:45:06;;;;;;;;;;;11.40;99.90;;;;;;5035040;28;20371;-50
2022/04/06 12:47:31;;;;;;;;;;;11.30;99.90;;;;;;5035324;28;20333;-52
2022/04/06 12:50:19;;;;;;;;;;;11.20;99.90;;;;;;5035091;28;19931;-53
2022/04/06 12:52:47;;;;;;;;;;;11.20;99.90;;;;;;5034781;28;20391;-48
2022/04/06 12:55:15;;;;;;;;;;;11.30;99.90;;;;;;5034922;28;20343;-48
2022/04/06 12:57:40;;;;;;;;;;;11.30;99.90;;;;;;5034631;28;20007;-49
2022/04/06 13:00:10;;;;;;;;;;;11.30;99.90;;;;;;5034856;28;19964;-49
2022/04/06 13:02:45;;;;;;;;;;;11.30;99.90;;;;;;5034815;28;19925;-47
2022/04/06 13:05:11;;;;;;;;;;;11.30;99.90;;;;;;5034753;28;19925;-49
2022/04/06 13:07:39;;;;;;;;;;;11.20;99.90;;;;;;5034465;28;19970;-50
2022/04/06 13:10:06;;;;;;;;;;;11.20;99.90;;;;;;5034669;28;20011;-51
2022/04/06 13:12:32;;;;;;;;;;;11.10;99.90;;;;;;5016781;28;19925;-48
2022/04/06 13:14:59;;;;;;;;;;;11.00;99.90;;;;;;5034441;28;20441;-47
2022/04/06 13:17:24;;;;;;;;;;;10.90;99.90;;;;;;5016790;28;19925;-47
2022/04/06 13:19:50;;;;;;;;;;;11.00;99.90;;;;;;5016738;28;20013;-50
2022/04/06 13:22:16;;;;;;;;;;;10.90;99.90;;;;;;5034286;28;20347;-48
2022/04/06 13:24:42;;;;;;;;;;;10.90;99.90;;;;;;5034301;28;19932;-48
2022/04/06 13:27:08;;;;;;;;;;;10.90;99.90;;;;;;5016577;28;19925;-47
2022/04/06 13:29:33;;;;;;;;;;;10.90;99.90;;;;;;5034260;28;19932;-49
2022/04/06 13:31:59;;;;;;;;;;;10.90;99.90;;;;;;5034292;28;19925;-48
2022/04/06 13:34:25;;;;;;;;;;;11.00;99.90;;;;;;5034229;28;19931;-48
2022/04/06 13:36:51;;;;;;;;;;;11.00;99.90;;;;;;5034137;28;19933;-47
2022/04/06 13:39:16;;;;;;;;;;;11.00;99.90;;;;;;5033975;28;19932;-47
2022/04/06 13:41:42;;;;;;;;;;;11.00;99.90;;;;;;5033959;28;19925;-47
2022/04/06 13:44:08;;;;;;;;;;;10.90;99.90;;;;;;5033890;28;20012;-47
2022/04/06 13:46:34;;;;;;;;;;;10.90;99.90;;;;;;5033192;28;20288;-50
2022/04/06 13:49:00;;;;;;;;;;;10.90;99.90;;;;;;5033823;28;19925;-47
2022/04/06 13:51:26;;;;;;;;;;;10.80;99.90;;;;;;5033562;28;19925;-47
2022/04/06 13:53:52;;;;;;;;;;;10.70;99.90;;;;;;5033735;28;19932;-50
2022/04/06 13:56:18;;;;;;;;;;;10.70;99.90;;;;;;5033873;28;19925;-49
2022/04/06 13:58:43;;;;;;;;;;;10.70;99.90;;;;;;5033843;28;20016;-48
2022/04/06 14:01:09;;;;;;;;;;;10.70;99.90;;;;;;5033713;28;20387;-47
2022/04/06 14:03:34;;;;;;;;;;;10.60;99.90;;;;;;5033726;28;19971;-48
2022/04/06 14:06:00;;;;;;;;;;;10.60;99.90;;;;;;5033658;28;19925;-49
2022/04/06 14:08:30;;;;;;;;;;;10.60;99.90;;;;;;5019074;28;20004;-49
2022/04/06 14:10:56;;;;;;;;;;;10.50;99.90;;;;;;5033677;28;20012;-48
2022/04/06 14:13:22;;;;;;;;;;;10.50;99.90;;;;;;5033566;28;20020;-49
2022/04/06 14:15:48;;;;;;;;;;;10.50;99.90;;;;;;5033459;28;19963;-48
2022/04/06 14:18:14;;;;;;;;;;;10.50;99.90;;;;;;5033405;28;19979;-49
2022/04/06 14:20:39;;;;;;;;;;;10.50;99.90;;;;;;5033472;28;19925;-49
2022/04/06 14:23:05;;;;;;;;;;;10.50;99.90;;;;;;5033162;28;20011;-48
2022/04/06 14:25:31;;;;;;;;;;;10.50;99.90;;;;;;5033569;28;19947;-47
2022/04/06 14:27:56;;;;;;;;;;;10.40;99.90;;;;;;5032062;28;19925;-49
2022/04/06 14:30:22;;;;;;;;;;;10.40;99.90;;;;;;5015644;28;19947;-48
2022/04/06 14:32:48;;;;;;;;;;;10.30;99.90;;;;;;5033274;28;19994;-48
2022/04/06 14:35:13;;;;;;;;;;;10.30;99.90;;;;;;5033418;28;19968;-47
2022/04/06 14:37:40;;;;;;;;;;;10.30;99.90;;;;;;5033075;28;19984;-47